Little Marsh, Pennsylvania
Current Conditions -  °F | °C
As of 4:35 AM on Tuesday 21 Oct 2014 (Local Time) from KN38 Reporting Station
Overcast Overcast  
Wind Chill: 44°   Ceiling: 5000
Heat Index: 46°   Visibility: 10mi
Dew Point: 39°   Wind: 5mph
Humidity: 76%   Direction: 230°SW
Pressure: 29.83"   Gusts: NA
Location:  41.9252°N, 77.5198°W
Report Text: KN38 210835Z AUTO 23004KT 10SM SCT022 OVC050 08/04 A2983 RMK AO2
Loading
Personal Weather Stations






























Interactive Weather Map
Tropical Storm Tracking
New forecast layout! Learn more

10-Day Weather Forecast

Advertisements
Track Severe Weather on mobile